Time;durP1;ratioP1;P1;durP2;ratioP2;P2;SDS_P1;SDS_P2;PMS_P1;PMS_P2;Temp;Humidity;BMP_temperature;BMP_pressure;BME280_temperature;BME280_humidity;BME280_pressure;Samples;Min_cycle;Max_cycle;Signal;HPM_P1;HPM_P2
2022/07/29 00:01:52;;;;;;;15.15;4.20;;;;;;;;;;4974186;28;20117;-63
2022/07/29 00:04:19;;;;;;;21.45;4.78;;;;;;;;;;4975830;28;20038;-62
2022/07/29 00:06:46;;;;;;;25.25;4.85;;;;;;;;;;4973359;28;20034;-62
2022/07/29 00:09:13;;;;;;;16.27;3.80;;;;;;;;;;4976859;28;20484;-62
2022/07/29 00:11:41;;;;;;;15.18;4.03;;;;;;;;;;4972479;28;20046;-62
2022/07/29 00:14:09;;;;;;;18.25;4.43;;;;;;;;;;4977552;28;20504;-63
2022/07/29 00:16:37;;;;;;;15.20;4.97;;;;;;;;;;4976256;28;20070;-61
2022/07/29 00:19:04;;;;;;;20.45;5.05;;;;;;;;;;4988791;28;20069;-61
2022/07/29 00:21:31;;;;;;;15.52;4.28;;;;;;;;;;4990545;28;20030;-64
2022/07/29 00:23:58;;;;;;;25.27;4.97;;;;;;;;;;4989911;28;20066;-61
2022/07/29 00:26:27;;;;;;;18.55;4.65;;;;;;;;;;4991256;28;20058;-63
2022/07/29 00:28:54;;;;;;;21.35;5.40;;;;;;;;;;4991205;28;20054;-61
2022/07/29 00:31:21;;;;;;;16.65;5.15;;;;;;;;;;4992923;28;20507;-63
2022/07/29 00:33:48;;;;;;;24.88;5.72;;;;;;;;;;4987321;28;20465;-61
2022/07/29 00:36:15;;;;;;;18.80;5.25;;;;;;;;;;4976041;28;20030;-63
2022/07/29 00:38:45;;;;;;;37.95;4.82;;;;;;;;;;4991526;28;20411;-63
2022/07/29 00:41:12;;;;;;;22.58;4.65;;;;;;;;;;4991512;28;20034;-61
2022/07/29 00:43:40;;;;;;;18.50;5.18;;;;;;;;;;4978492;28;20100;-63
2022/07/29 00:46:07;;;;;;;22.27;5.07;;;;;;;;;;4971160;28;20054;-63
2022/07/29 00:48:37;;;;;;;21.23;4.47;;;;;;;;;;4971996;28;20034;-61
2022/07/29 00:51:05;;;;;;;20.92;4.93;;;;;;;;;;4975590;28;20548;-63
2022/07/29 00:53:32;;;;;;;38.90;4.93;;;;;;;;;;4978665;28;20160;-63
2022/07/29 00:56:00;;;;;;;23.42;4.85;;;;;;;;;;4991486;28;20038;-63
2022/07/29 00:58:27;;;;;;;14.93;4.20;;;;;;;;;;4989024;28;20034;-61
2022/07/29 01:00:54;;;;;;;19.17;4.55;;;;;;;;;;4991562;28;20511;-63
2022/07/29 01:03:21;;;;;;;24.20;4.30;;;;;;;;;;4989838;28;20073;-61
2022/07/29 01:05:48;;;;;;;29.10;4.97;;;;;;;;;;4989987;28;20109;-62
2022/07/29 01:08:16;;;;;;;24.10;4.60;;;;;;;;;;4988611;28;20022;-65
2022/07/29 01:10:44;;;;;;;28.92;5.20;;;;;;;;;;4990048;28;20440;-63
2022/07/29 01:13:12;;;;;;;23.38;4.78;;;;;;;;;;4989752;28;20038;-64
2022/07/29 01:15:44;;;;;;;29.48;4.90;;;;;;;;;;4989945;28;20807;-63
2022/07/29 01:18:14;;;;;;;24.50;4.90;;;;;;;;;;4989345;28;20056;-65
2022/07/29 01:20:59;;;;;;;20.00;4.75;;;;;;;;;;4989262;28;20046;-62
2022/07/29 01:23:33;;;;;;;21.10;5.10;;;;;;;;;;4991186;28;20035;-62
2022/07/29 01:26:19;;;;;;;25.02;4.80;;;;;;;;;;4991954;28;20022;-62
2022/07/29 01:29:04;;;;;;;17.83;5.25;;;;;;;;;;4991222;28;20085;-63
2022/07/29 01:31:35;;;;;;;15.82;4.50;;;;;;;;;;4991332;28;20041;-62
2022/07/29 01:34:06;;;;;;;13.10;4.15;;;;;;;;;;4992028;28;20032;-62
2022/07/29 01:36:38;;;;;;;13.60;4.43;;;;;;;;;;4973013;28;20408;-62
2022/07/29 01:39:26;;;;;;;11.60;4.53;;;;;;;;;;4973923;28;20089;-62
2022/07/29 01:42:07;;;;;;;21.95;4.28;;;;;;;;;;4991394;28;20048;-62
2022/07/29 01:44:36;;;;;;;20.73;4.63;;;;;;;;;;4991109;28;20034;-63
2022/07/29 01:47:09;;;;;;;17.48;4.28;;;;;;;;;;4991399;28;20439;-62
2022/07/29 01:49:41;;;;;;;12.93;4.00;;;;;;;;;;4993160;28;20768;-62
2022/07/29 01:52:14;;;;;;;12.10;3.77;;;;;;;;;;4995301;28;20074;-62
2022/07/29 01:54:45;;;;;;;15.07;3.90;;;;;;;;;;4994972;28;20030;-62
2022/07/29 01:57:15;;;;;;;10.60;4.05;;;;;;;;;;4994892;28;20173;-62
2022/07/29 01:59:43;;;;;;;14.05;3.58;;;;;;;;;;4995143;28;20500;-62
2022/07/29 02:02:12;;;;;;;14.05;3.97;;;;;;;;;;4994701;28;20034;-62
2022/07/29 02:04:41;;;;;;;11.90;3.88;;;;;;;;;;4994818;28;20038;-62
2022/07/29 02:07:11;;;;;;;11.48;4.05;;;;;;;;;;4994962;28;20062;-62
2022/07/29 02:09:40;;;;;;;8.77;3.83;;;;;;;;;;4994543;28;20452;-62
2022/07/29 02:12:09;;;;;;;8.18;3.58;;;;;;;;;;4995122;28;20031;-62
2022/07/29 02:14:38;;;;;;;11.60;4.10;;;;;;;;;;4994498;28;20089;-62
2022/07/29 02:17:06;;;;;;;9.20;3.53;;;;;;;;;;4994550;28;20042;-62
2022/07/29 02:19:34;;;;;;;8.85;3.17;;;;;;;;;;4977479;28;20030;-62
2022/07/29 02:22:02;;;;;;;12.52;3.85;;;;;;;;;;4994824;28;20030;-62
2022/07/29 02:24:31;;;;;;;9.88;4.03;;;;;;;;;;4995263;28;20026;-62
2022/07/29 02:27:00;;;;;;;6.93;3.40;;;;;;;;;;4994597;28;20444;-62
2022/07/29 02:29:30;;;;;;;9.40;3.17;;;;;;;;;;4994631;28;20046;-62
2022/07/29 02:31:59;;;;;;;11.13;3.50;;;;;;;;;;4995068;28;20041;-62
2022/07/29 02:34:28;;;;;;;13.27;4.00;;;;;;;;;;4993943;28;20030;-62
2022/07/29 02:36:55;;;;;;;12.77;3.50;;;;;;;;;;4989085;28;20039;-59
2022/07/29 02:39:24;;;;;;;7.10;3.10;;;;;;;;;;4993040;28;20109;-62
2022/07/29 02:42:00;;;;;;;14.15;3.33;;;;;;;;;;4994136;28;20030;-62
2022/07/29 02:44:27;;;;;;;6.35;2.80;;;;;;;;;;4993322;28;20038;-61
2022/07/29 02:46:57;;;;;;;11.27;3.10;;;;;;;;;;4994054;28;20444;-64
2022/07/29 02:49:33;;;;;;;8.38;2.90;;;;;;;;;;4994134;28;20031;-63
2022/07/29 02:52:02;;;;;;;8.68;3.08;;;;;;;;;;4992568;28;20080;-63
2022/07/29 02:54:32;;;;;;;15.38;3.38;;;;;;;;;;4994334;28;20031;-63
2022/07/29 02:57:01;;;;;;;8.73;2.83;;;;;;;;;;4994436;28;20725;-63
2022/07/29 02:59:29;;;;;;;8.93;3.33;;;;;;;;;;4994103;28;20029;-63
2022/07/29 03:01:56;;;;;;;9.45;3.20;;;;;;;;;;4994747;28;20034;-63
2022/07/29 03:04:25;;;;;;;9.48;2.83;;;;;;;;;;4994419;28;20102;-63
2022/07/29 03:06:53;;;;;;;9.70;3.10;;;;;;;;;;4993929;28;20046;-63
2022/07/29 03:09:21;;;;;;;7.63;2.50;;;;;;;;;;4994804;28;20057;-63
2022/07/29 03:11:48;;;;;;;8.32;2.75;;;;;;;;;;4994110;28;20031;-63
2022/07/29 03:14:19;;;;;;;13.52;2.88;;;;;;;;;;4994451;28;20034;-63
2022/07/29 03:16:46;;;;;;;5.82;2.60;;;;;;;;;;4993033;28;20042;-63
2022/07/29 03:19:14;;;;;;;7.82;2.50;;;;;;;;;;4994259;28;20460;-63
2022/07/29 03:21:41;;;;;;;10.57;3.10;;;;;;;;;;4960705;28;20109;-63
2022/07/29 03:24:08;;;;;;;8.82;2.53;;;;;;;;;;4992485;28;20030;-63
2022/07/29 03:26:35;;;;;;;9.13;2.58;;;;;;;;;;4993096;28;20038;-63
2022/07/29 03:29:02;;;;;;;5.95;2.50;;;;;;;;;;4993456;28;20054;-63
2022/07/29 03:31:29;;;;;;;7.57;2.22;;;;;;;;;;4993669;28;20030;-63
2022/07/29 03:33:57;;;;;;;6.30;2.05;;;;;;;;;;4993582;28;20038;-63
2022/07/29 03:36:24;;;;;;;6.38;2.60;;;;;;;;;;4993154;28;20365;-63
2022/07/29 03:38:51;;;;;;;5.47;2.30;;;;;;;;;;4993582;28;20508;-63
2022/07/29 03:41:19;;;;;;;6.28;2.80;;;;;;;;;;4993339;28;20499;-63
2022/07/29 03:43:47;;;;;;;7.50;2.15;;;;;;;;;;4993354;28;20605;-63
2022/07/29 03:46:14;;;;;;;6.18;2.03;;;;;;;;;;4993094;28;20511;-63
2022/07/29 03:48:43;;;;;;;10.65;2.38;;;;;;;;;;4993697;28;20026;-63
2022/07/29 03:51:10;;;;;;;12.68;2.45;;;;;;;;;;4993344;28;20092;-63
2022/07/29 03:53:37;;;;;;;5.00;2.10;;;;;;;;;;4993151;28;20022;-63
2022/07/29 03:56:05;;;;;;;4.85;2.05;;;;;;;;;;4993173;28;20121;-63
2022/07/29 03:58:32;;;;;;;5.00;2.10;;;;;;;;;;4994165;28;20509;-63
2022/07/29 04:01:00;;;;;;;4.70;2.13;;;;;;;;;;4995008;28;20088;-64
2022/07/29 04:03:27;;;;;;;6.80;2.38;;;;;;;;;;4994382;28;20038;-63
2022/07/29 04:06:01;;;;;;;5.00;1.92;;;;;;;;;;4992172;28;20034;-63
2022/07/29 04:08:28;;;;;;;5.20;1.67;;;;;;;;;;4993472;28;20058;-63
2022/07/29 04:10:55;;;;;;;5.47;1.73;;;;;;;;;;4992561;28;20397;-63
2022/07/29 04:13:22;;;;;;;5.85;2.13;;;;;;;;;;4993500;28;20041;-63
2022/07/29 04:15:49;;;;;;;5.80;2.13;;;;;;;;;;4993225;28;20026;-63
2022/07/29 04:18:16;;;;;;;5.70;2.15;;;;;;;;;;4993098;28;20030;-63
2022/07/29 04:20:43;;;;;;;4.63;1.52;;;;;;;;;;4993449;28;20026;-63
2022/07/29 04:23:10;;;;;;;4.13;1.92;;;;;;;;;;4992639;28;20037;-63
2022/07/29 04:25:41;;;;;;;5.28;1.77;;;;;;;;;;4992702;28;20108;-63
2022/07/29 04:28:08;;;;;;;4.05;1.80;;;;;;;;;;4992801;28;20397;-64
2022/07/29 04:30:36;;;;;;;3.65;1.88;;;;;;;;;;4993077;28;20109;-63
2022/07/29 04:33:05;;;;;;;4.45;1.98;;;;;;;;;;4992490;28;20598;-63
2022/07/29 04:35:34;;;;;;;6.43;1.73;;;;;;;;;;4993398;28;20088;-63
2022/07/29 04:38:02;;;;;;;3.85;2.00;;;;;;;;;;4992742;28;20034;-63
2022/07/29 04:40:29;;;;;;;5.35;1.92;;;;;;;;;;4992056;28;20038;-63
2022/07/29 04:42:56;;;;;;;4.43;1.70;;;;;;;;;;4991850;28;20543;-63
2022/07/29 04:45:23;;;;;;;5.47;1.70;;;;;;;;;;4993157;28;20500;-63
2022/07/29 04:47:50;;;;;;;2.35;1.35;;;;;;;;;;4992278;28;20041;-63
2022/07/29 04:50:18;;;;;;;3.60;1.40;;;;;;;;;;4992575;28;20034;-63
2022/07/29 04:52:45;;;;;;;2.88;1.58;;;;;;;;;;4992649;28;20424;-63
2022/07/29 04:55:12;;;;;;;5.47;1.90;;;;;;;;;;4992327;28;20061;-63
2022/07/29 04:57:39;;;;;;;3.30;1.60;;;;;;;;;;4992561;28;20038;-63
2022/07/29 05:00:06;;;;;;;3.13;1.60;;;;;;;;;;4992870;28;20077;-63
2022/07/29 05:02:33;;;;;;;4.07;1.50;;;;;;;;;;4992211;28;20110;-63
2022/07/29 05:05:00;;;;;;;2.85;1.42;;;;;;;;;;4991553;28;20034;-63
2022/07/29 05:07:27;;;;;;;2.50;1.30;;;;;;;;;;4992677;28;20054;-63
2022/07/29 05:09:56;;;;;;;3.42;1.58;;;;;;;;;;4992096;28;20026;-63
2022/07/29 05:12:24;;;;;;;4.05;1.85;;;;;;;;;;4992406;28;20376;-63
2022/07/29 05:14:52;;;;;;;2.50;1.38;;;;;;;;;;4992313;28;20026;-63
2022/07/29 05:17:19;;;;;;;2.20;1.10;;;;;;;;;;4991963;28;20030;-63
2022/07/29 05:19:46;;;;;;;3.60;1.50;;;;;;;;;;4992394;28;20584;-63
2022/07/29 05:22:13;;;;;;;3.92;1.38;;;;;;;;;;4992725;28;20037;-63
2022/07/29 05:24:40;;;;;;;2.30;1.30;;;;;;;;;;4994242;28;20038;-63
2022/07/29 05:27:07;;;;;;;2.88;1.25;;;;;;;;;;4996127;28;20030;-63
2022/07/29 05:29:34;;;;;;;2.63;1.30;;;;;;;;;;4996479;28;20061;-63
2022/07/29 05:32:01;;;;;;;3.53;1.65;;;;;;;;;;4996758;28;20034;-63
2022/07/29 05:34:28;;;;;;;2.78;1.23;;;;;;;;;;4995668;28;20089;-63
2022/07/29 05:36:55;;;;;;;2.50;1.20;;;;;;;;;;4995630;28;20057;-63
2022/07/29 05:39:22;;;;;;;2.75;1.40;;;;;;;;;;4996485;28;20114;-63
2022/07/29 05:41:49;;;;;;;1.90;1.35;;;;;;;;;;4995685;28;20030;-63
2022/07/29 05:44:16;;;;;;;2.22;1.13;;;;;;;;;;4994963;28;20022;-63
2022/07/29 05:46:43;;;;;;;2.03;1.13;;;;;;;;;;4995314;28;20452;-63
2022/07/29 05:49:10;;;;;;;2.00;1.00;;;;;;;;;;4996311;28;20034;-63
2022/07/29 05:51:37;;;;;;;2.13;1.25;;;;;;;;;;4995477;28;20029;-63
2022/07/29 05:54:04;;;;;;;2.15;1.17;;;;;;;;;;4995922;28;20037;-63
2022/07/29 05:56:31;;;;;;;1.80;1.10;;;;;;;;;;4995521;28;20038;-63
2022/07/29 05:58:58;;;;;;;1.95;1.27;;;;;;;;;;4995978;28;20081;-63
2022/07/29 06:01:25;;;;;;;2.05;0.93;;;;;;;;;;4996226;28;20027;-63
2022/07/29 06:03:52;;;;;;;2.97;1.23;;;;;;;;;;4995434;28;20038;-63
2022/07/29 06:06:19;;;;;;;2.70;1.17;;;;;;;;;;4996041;28;20108;-63
2022/07/29 06:08:46;;;;;;;2.28;1.10;;;;;;;;;;4995491;28;20473;-63
2022/07/29 06:11:13;;;;;;;2.78;0.98;;;;;;;;;;4995787;28;20034;-63
2022/07/29 06:13:40;;;;;;;1.65;0.90;;;;;;;;;;4995053;28;20086;-63
2022/07/29 06:16:07;;;;;;;2.65;1.00;;;;;;;;;;4995501;28;20070;-63
2022/07/29 06:18:34;;;;;;;2.08;1.02;;;;;;;;;;4994928;28;20441;-63
2022/07/29 06:21:01;;;;;;;4.78;1.10;;;;;;;;;;4995425;28;20037;-63
2022/07/29 06:23:28;;;;;;;2.10;0.93;;;;;;;;;;4995050;28;20022;-63
2022/07/29 06:25:55;;;;;;;1.67;0.85;;;;;;;;;;4995566;28;20104;-64
2022/07/29 06:28:22;;;;;;;2.20;1.00;;;;;;;;;;4994642;28;20042;-64
2022/07/29 06:30:49;;;;;;;2.15;1.08;;;;;;;;;;4995476;28;20156;-64
2022/07/29 06:33:20;;;;;;;2.00;1.15;;;;;;;;;;4994926;28;20496;-64
2022/07/29 06:35:47;;;;;;;2.40;0.82;;;;;;;;;;4994688;28;20053;-64
2022/07/29 06:38:14;;;;;;;2.20;1.10;;;;;;;;;;4994805;28;20038;-64
2022/07/29 06:41:00;;;;;;;2.85;0.77;;;;;;;;;;4994784;28;20102;-64
2022/07/29 06:43:34;;;;;;;1.48;0.93;;;;;;;;;;4994807;28;20431;-64
2022/07/29 06:46:02;;;;;;;3.78;0.98;;;;;;;;;;4994943;28;20037;-64
2022/07/29 06:48:30;;;;;;;1.13;0.80;;;;;;;;;;4994623;28;20171;-64
2022/07/29 06:50:57;;;;;;;2.08;0.70;;;;;;;;;;4995012;28;20380;-64
2022/07/29 06:53:24;;;;;;;1.80;0.80;;;;;;;;;;4994832;28;20030;-64
2022/07/29 06:55:51;;;;;;;2.15;1.00;;;;;;;;;;4994531;28;20018;-64
2022/07/29 06:58:20;;;;;;;3.42;0.80;;;;;;;;;;4993825;28;20031;-64
2022/07/29 07:00:47;;;;;;;1.67;0.70;;;;;;;;;;4994440;28;20092;-64
2022/07/29 07:03:15;;;;;;;1.67;0.80;;;;;;;;;;4994590;28;20037;-64
2022/07/29 07:05:42;;;;;;;0.90;0.60;;;;;;;;;;4994285;28;20038;-64
2022/07/29 07:08:09;;;;;;;1.33;0.73;;;;;;;;;;4994431;28;20065;-64
2022/07/29 07:10:36;;;;;;;2.90;0.90;;;;;;;;;;4994468;28;20034;-64
2022/07/29 07:13:04;;;;;;;1.65;0.80;;;;;;;;;;4994466;28;20057;-64
2022/07/29 07:15:31;;;;;;;2.55;0.95;;;;;;;;;;4994799;28;20105;-64
2022/07/29 07:17:58;;;;;;;2.55;0.77;;;;;;;;;;4994194;28;20026;-64
2022/07/29 07:20:25;;;;;;;1.85;0.60;;;;;;;;;;4993956;28;20495;-64
2022/07/29 07:22:52;;;;;;;2.92;0.70;;;;;;;;;;4994517;28;20019;-64
2022/07/29 07:25:19;;;;;;;1.00;0.75;;;;;;;;;;4994022;28;20073;-64
2022/07/29 07:27:46;;;;;;;1.15;0.70;;;;;;;;;;4994349;28;20026;-64
2022/07/29 07:30:14;;;;;;;1.13;0.77;;;;;;;;;;4993748;28;20054;-64
2022/07/29 07:32:41;;;;;;;2.10;0.82;;;;;;;;;;4994162;28;20034;-64
2022/07/29 07:35:08;;;;;;;2.28;0.90;;;;;;;;;;4994010;28;20088;-64
2022/07/29 07:37:36;;;;;;;1.75;0.63;;;;;;;;;;4994313;28;20038;-64
2022/07/29 07:40:03;;;;;;;1.70;0.75;;;;;;;;;;4993674;28;20062;-64
2022/07/29 07:42:30;;;;;;;2.08;0.60;;;;;;;;;;4993699;28;20038;-64
2022/07/29 07:44:57;;;;;;;2.00;0.68;;;;;;;;;;4993727;28;20113;-64
2022/07/29 07:47:24;;;;;;;1.33;0.93;;;;;;;;;;4992049;28;20041;-64
2022/07/29 07:49:51;;;;;;;2.35;0.90;;;;;;;;;;4992424;28;20100;-64
2022/07/29 07:52:20;;;;;;;0.82;0.60;;;;;;;;;;4993733;28;20026;-64
2022/07/29 07:54:47;;;;;;;1.00;0.70;;;;;;;;;;4993556;28;20035;-64
2022/07/29 07:57:14;;;;;;;1.10;0.70;;;;;;;;;;4993051;28;20034;-64
2022/07/29 07:59:41;;;;;;;1.05;0.70;;;;;;;;;;4993293;28;20068;-64
2022/07/29 08:02:09;;;;;;;0.80;0.43;;;;;;;;;;4992935;28;20030;-64
2022/07/29 08:04:36;;;;;;;3.30;0.60;;;;;;;;;;4992654;28;20443;-64
2022/07/29 08:07:03;;;;;;;1.35;0.65;;;;;;;;;;4993042;28;20117;-64
2022/07/29 08:09:30;;;;;;;0.77;0.60;;;;;;;;;;4992902;28;20014;-64
2022/07/29 08:11:59;;;;;;;2.03;0.70;;;;;;;;;;4993267;28;20034;-64
2022/07/29 08:14:26;;;;;;;2.40;0.80;;;;;;;;;;4992910;28;20035;-64
2022/07/29 08:16:53;;;;;;;0.50;0.43;;;;;;;;;;4992473;28;20117;-64
2022/07/29 08:19:20;;;;;;;0.95;0.60;;;;;;;;;;4993042;28;20493;-64
2022/07/29 08:21:47;;;;;;;1.45;0.60;;;;;;;;;;4992655;28;20046;-64
2022/07/29 08:26:59;;;;;;;2.35;0.50;;;;;;;;;;4992144;28;20044;-64
2022/07/29 08:29:26;;;;;;;2.35;0.60;;;;;;;;;;5185792;22;20050;-60
2022/07/29 08:31:53;;;;;;;1.52;0.70;;;;;;;;;;5052534;28;20055;-60
2022/07/29 08:34:20;;;;;;;0.85;0.43;;;;;;;;;;5052332;28;20029;-60
2022/07/29 08:36:47;;;;;;;1.17;0.60;;;;;;;;;;5052256;28;20033;-60
2022/07/29 08:39:14;;;;;;;1.15;0.73;;;;;;;;;;5051928;28;20029;-60
2022/07/29 08:41:41;;;;;;;2.47;0.57;;;;;;;;;;5052241;28;20033;-60
2022/07/29 08:44:08;;;;;;;1.15;0.50;;;;;;;;;;5052261;28;20037;-61
2022/07/29 08:46:38;;;;;;;1.83;0.50;;;;;;;;;;5051851;28;20120;-61
2022/07/29 08:49:05;;;;;;;0.75;0.50;;;;;;;;;;5052023;28;20486;-61
2022/07/29 08:51:35;;;;;;;0.90;0.50;;;;;;;;;;5052073;28;20032;-61
2022/07/29 08:54:02;;;;;;;1.52;0.90;;;;;;;;;;5052270;28;20064;-60
2022/07/29 08:56:30;;;;;;;0.88;0.50;;;;;;;;;;5052141;28;20027;-60
2022/07/29 08:58:59;;;;;;;1.15;0.52;;;;;;;;;;5051798;28;20065;-60
2022/07/29 09:01:28;;;;;;;1.75;0.50;;;;;;;;;;5052267;28;20517;-60
2022/07/29 09:03:56;;;;;;;1.88;0.70;;;;;;;;;;5051837;28;20503;-60
2022/07/29 09:06:27;;;;;;;0.43;0.43;;;;;;;;;;5052736;28;20029;-60
2022/07/29 09:08:55;;;;;;;1.70;0.70;;;;;;;;;;5053232;28;20025;-60
2022/07/29 09:11:22;;;;;;;0.73;0.50;;;;;;;;;;5052257;28;20028;-60
2022/07/29 09:13:49;;;;;;;0.90;0.50;;;;;;;;;;5051903;28;20561;-60
2022/07/29 09:16:16;;;;;;;0.93;0.50;;;;;;;;;;5051738;28;20104;-60
2022/07/29 09:18:44;;;;;;;0.93;0.52;;;;;;;;;;5051845;28;20496;-60
2022/07/29 09:21:58;;;;;;;0.75;0.50;;;;;;;;;;5051646;28;20110;-60
2022/07/29 09:24:09;;;;;;;0.75;0.50;;;;;;;;;;5041145;28;20486;-60
2022/07/29 09:26:43;;;;;;;1.20;0.52;;;;;;;;;;5051605;28;20098;-60
2022/07/29 09:29:11;;;;;;;0.95;0.47;;;;;;;;;;5051253;28;20076;-60
2022/07/29 09:31:39;;;;;;;1.67;0.73;;;;;;;;;;5051309;28;20033;-60
2022/07/29 09:34:07;;;;;;;0.73;0.40;;;;;;;;;;5051925;28;20390;-60
2022/07/29 09:36:44;;;;;;;1.00;0.70;;;;;;;;;;5033677;28;20037;-60
2022/07/29 09:39:12;;;;;;;0.93;0.50;;;;;;;;;;5051115;28;20090;-60
2022/07/29 09:41:45;;;;;;;0.80;0.50;;;;;;;;;;5051761;28;20039;-60
2022/07/29 09:44:12;;;;;;;0.77;0.55;;;;;;;;;;5051569;28;20032;-60
2022/07/29 09:46:41;;;;;;;1.55;0.60;;;;;;;;;;5051833;28;20103;-60
2022/07/29 09:49:08;;;;;;;0.90;0.40;;;;;;;;;;5051309;28;20044;-60
2022/07/29 09:51:35;;;;;;;0.60;0.40;;;;;;;;;;5051959;28;20029;-60
2022/07/29 09:54:04;;;;;;;1.33;0.55;;;;;;;;;;5051151;28;20172;-60
2022/07/29 09:56:41;;;;;;;0.70;0.40;;;;;;;;;;5051418;28;20108;-60
2022/07/29 09:59:09;;;;;;;2.63;0.43;;;;;;;;;;5051292;28;20040;-60
2022/07/29 10:01:36;;;;;;;0.70;0.57;;;;;;;;;;5050898;28;20047;-60
2022/07/29 10:04:03;;;;;;;1.38;0.50;;;;;;;;;;5051566;28;20021;-60
2022/07/29 10:06:30;;;;;;;1.02;0.50;;;;;;;;;;5051226;28;20032;-60
2022/07/29 10:09:10;;;;;;;0.85;0.50;;;;;;;;;;5051394;28;20479;-60
2022/07/29 10:11:38;;;;;;;3.58;0.40;;;;;;;;;;5054839;28;20033;-60
2022/07/29 10:14:05;;;;;;;0.45;0.32;;;;;;;;;;5054748;28;20478;-60
2022/07/29 10:16:35;;;;;;;1.00;0.47;;;;;;;;;;5054909;28;20029;-60
2022/07/29 10:19:02;;;;;;;0.93;0.50;;;;;;;;;;5054818;28;20402;-60
2022/07/29 10:21:30;;;;;;;0.50;0.40;;;;;;;;;;5054907;28;20025;-60
2022/07/29 10:23:58;;;;;;;0.80;0.40;;;;;;;;;;5054706;28;20028;-60
2022/07/29 10:26:25;;;;;;;0.63;0.40;;;;;;;;;;5055287;28;20073;-60
2022/07/29 10:28:52;;;;;;;1.30;0.40;;;;;;;;;;5054219;28;20068;-60
2022/07/29 10:31:37;;;;;;;0.40;0.30;;;;;;;;;;5053704;28;20033;-61
2022/07/29 10:34:22;;;;;;;0.90;0.60;;;;;;;;;;5050847;28;20482;-61
2022/07/29 10:36:52;;;;;;;0.50;0.40;;;;;;;;;;5039899;28;20461;-60
2022/07/29 10:39:42;;;;;;;1.20;0.60;;;;;;;;;;5034676;28;20037;-61
2022/07/29 10:42:14;;;;;;;1.13;0.70;;;;;;;;;;5033551;28;20044;-61
2022/07/29 10:44:42;;;;;;;2.55;0.52;;;;;;;;;;5043367;28;20052;-61
2022/07/29 10:47:20;;;;;;;4.20;0.65;;;;;;;;;;5038331;28;20088;-60
2022/07/29 10:49:57;;;;;;;4.68;0.80;;;;;;;;;;5034090;28;20116;-60
2022/07/29 10:52:27;;;;;;;3.78;0.55;;;;;;;;;;5033924;28;20033;-60
2022/07/29 10:54:55;;;;;;;2.10;0.68;;;;;;;;;;5034425;28;20116;-61
2022/07/29 10:57:26;;;;;;;1.73;0.50;;;;;;;;;;5033911;28;20065;-60
2022/07/29 11:00:08;;;;;;;3.03;0.73;;;;;;;;;;5033640;28;20084;-61
2022/07/29 11:02:55;;;;;;;1.10;0.60;;;;;;;;;;5034119;28;20403;-61
2022/07/29 11:05:23;;;;;;;0.93;0.57;;;;;;;;;;5033958;28;20030;-61
2022/07/29 11:08:08;;;;;;;2.83;0.50;;;;;;;;;;5033971;28;20037;-61
2022/07/29 11:10:35;;;;;;;0.93;0.40;;;;;;;;;;5033431;28;20029;-60
2022/07/29 11:13:02;;;;;;;2.75;0.50;;;;;;;;;;5034370;28;20079;-61
2022/07/29 11:15:30;;;;;;;1.73;0.80;;;;;;;;;;5033193;28;20140;-60
2022/07/29 11:17:57;;;;;;;1.35;0.50;;;;;;;;;;5033588;28;20033;-61
2022/07/29 11:20:32;;;;;;;1.67;0.63;;;;;;;;;;5034128;28;20025;-60
2022/07/29 11:23:00;;;;;;;6.75;0.60;;;;;;;;;;5050152;28;20517;-59
2022/07/29 11:25:27;;;;;;;17.63;1.70;;;;;;;;;;5053861;28;20478;-61
2022/07/29 11:27:55;;;;;;;53.20;2.78;;;;;;;;;;5053552;28;20399;-61
2022/07/29 11:30:22;;;;;;;76.55;3.85;;;;;;;;;;5052796;28;20525;-62
2022/07/29 11:32:50;;;;;;;175.20;13.65;;;;;;;;;;5053177;28;20040;-60
2022/07/29 11:35:23;;;;;;;143.52;13.30;;;;;;;;;;5044510;28;20033;-61
2022/07/29 11:38:08;;;;;;;79.70;6.82;;;;;;;;;;5038480;28;20040;-61
2022/07/29 11:40:35;;;;;;;46.83;4.78;;;;;;;;;;5035609;28;20041;-60
2022/07/29 11:43:02;;;;;;;33.47;4.15;;;;;;;;;;5032908;28;20044;-62
2022/07/29 11:45:45;;;;;;;43.53;5.13;;;;;;;;;;5042011;28;20022;-60
2022/07/29 11:48:19;;;;;;;42.60;3.90;;;;;;;;;;5045825;28;20067;-60
2022/07/29 11:50:46;;;;;;;35.25;4.30;;;;;;;;;;5043377;28;20056;-60
2022/07/29 11:53:14;;;;;;;37.20;5.07;;;;;;;;;;5052700;28;20025;-60
2022/07/29 11:55:42;;;;;;;36.92;4.85;;;;;;;;;;5053473;28;20079;-60
2022/07/29 11:58:09;;;;;;;33.35;4.93;;;;;;;;;;5043210;28;20445;-60
2022/07/29 12:00:37;;;;;;;40.03;5.25;;;;;;;;;;5050401;28;20029;-60
2022/07/29 12:03:09;;;;;;;39.95;6.05;;;;;;;;;;5052218;28;20093;-59
2022/07/29 12:05:40;;;;;;;46.95;6.32;;;;;;;;;;5036774;28;20038;-60
2022/07/29 12:08:08;;;;;;;39.15;5.95;;;;;;;;;;5020354;28;20376;-60
2022/07/29 12:10:36;;;;;;;43.72;6.78;;;;;;;;;;5032035;28;20037;-61
2022/07/29 12:13:03;;;;;;;42.97;5.78;;;;;;;;;;5031904;28;20021;-61
2022/07/29 12:15:30;;;;;;;37.25;5.88;;;;;;;;;;5033521;28;20029;-61
2022/07/29 12:17:57;;;;;;;54.65;5.80;;;;;;;;;;5033351;28;20072;-63
2022/07/29 12:20:26;;;;;;;42.60;5.55;;;;;;;;;;5032693;28;20045;-64
2022/07/29 12:22:55;;;;;;;31.58;4.78;;;;;;;;;;5032339;28;20057;-63
2022/07/29 12:25:23;;;;;;;30.98;4.85;;;;;;;;;;5032433;28;20026;-62
2022/07/29 12:28:00;;;;;;;23.88;3.88;;;;;;;;;;5032644;28;20104;-61
2022/07/29 12:30:38;;;;;;;28.83;4.00;;;;;;;;;;5031610;28;20049;-61
2022/07/29 12:33:12;;;;;;;24.95;3.60;;;;;;;;;;5032076;28;20044;-61
2022/07/29 12:35:39;;;;;;;25.13;4.18;;;;;;;;;;5031908;28;20048;-61
2022/07/29 12:38:06;;;;;;;32.45;4.72;;;;;;;;;;5033936;28;20041;-60
2022/07/29 12:40:33;;;;;;;20.08;3.72;;;;;;;;;;5035810;28;20037;-61
2022/07/29 12:43:09;;;;;;;24.85;3.42;;;;;;;;;;5031785;28;20112;-61
2022/07/29 12:45:36;;;;;;;16.15;3.45;;;;;;;;;;5034179;28;20030;-62
2022/07/29 12:48:04;;;;;;;23.35;3.58;;;;;;;;;;5031887;28;20048;-62
2022/07/29 12:50:32;;;;;;;25.75;3.83;;;;;;;;;;5031786;28;20028;-61
2022/07/29 12:53:14;;;;;;;15.35;3.38;;;;;;;;;;5043061;28;20098;-64
2022/07/29 12:55:41;;;;;;;;;;;;;;;;;;5052440;28;20503;-64
2022/07/29 12:58:08;;;;;;;23.67;3.47;;;;;;;;;;5052327;28;19927;-65
2022/07/29 13:00:35;;;;;;;19.70;3.15;;;;;;;;;;5051323;28;20036;-65
2022/07/29 13:03:02;;;;;;;21.02;3.10;;;;;;;;;;5052090;28;20028;-64
2022/07/29 13:05:42;;;;;;;21.25;3.42;;;;;;;;;;5051512;28;20028;-64
2022/07/29 13:08:13;;;;;;;21.80;2.80;;;;;;;;;;5048657;28;20067;-65
2022/07/29 13:10:40;;;;;;;17.02;2.67;;;;;;;;;;5032234;28;20079;-65
2022/07/29 13:13:11;;;;;;;18.48;3.08;;;;;;;;;;5032196;28;20033;-65
2022/07/29 13:15:39;;;;;;;24.77;2.88;;;;;;;;;;5031432;28;20053;-63
2022/07/29 13:18:25;;;;;;;27.38;3.20;;;;;;;;;;5031299;28;20041;-64
2022/07/29 13:20:52;;;;;;;25.17;3.53;;;;;;;;;;5031713;28;20051;-62
2022/07/29 13:23:19;;;;;;;25.55;3.85;;;;;;;;;;5031142;28;20029;-62
2022/07/29 13:25:46;;;;;;;16.92;3.40;;;;;;;;;;5031922;28;20113;-63
2022/07/29 13:28:13;;;;;;;25.75;3.28;;;;;;;;;;5028314;28;20029;-62
2022/07/29 13:30:41;;;;;;;19.42;2.90;;;;;;;;;;5044576;28;20035;-64
2022/07/29 13:33:08;;;;;;;23.42;3.17;;;;;;;;;;5030154;28;20055;-62
2022/07/29 13:35:35;;;;;;;24.23;3.08;;;;;;;;;;5030486;28;20029;-64
2022/07/29 13:38:02;;;;;;;23.73;2.80;;;;;;;;;;5029741;28;20442;-64
2022/07/29 13:40:30;;;;;;;17.48;2.55;;;;;;;;;;5030995;28;20033;-64
2022/07/29 13:42:57;;;;;;;27.65;3.75;;;;;;;;;;5030825;28;20442;-63
2022/07/29 13:45:24;;;;;;;24.95;3.50;;;;;;;;;;5031937;28;20030;-64
2022/07/29 13:47:51;;;;;;;10.93;2.10;;;;;;;;;;5033743;28;20029;-63
2022/07/29 13:50:18;;;;;;;24.40;2.20;;;;;;;;;;5034829;28;20378;-62
2022/07/29 13:52:47;;;;;;;24.88;2.55;;;;;;;;;;5033788;28;20037;-63
2022/07/29 13:55:14;;;;;;;20.92;2.10;;;;;;;;;;5034959;28;20037;-64
2022/07/29 13:57:41;;;;;;;17.80;2.00;;;;;;;;;;5033217;28;20368;-63
2022/07/29 14:00:09;;;;;;;14.95;1.58;;;;;;;;;;5034585;28;20033;-62
2022/07/29 14:02:38;;;;;;;11.60;1.83;;;;;;;;;;5033963;28;20033;-63
2022/07/29 14:05:05;;;;;;;14.20;1.60;;;;;;;;;;5034223;28;20045;-63
2022/07/29 14:07:33;;;;;;;11.10;1.77;;;;;;;;;;5033476;28;20026;-63
2022/07/29 14:10:00;;;;;;;5.45;1.25;;;;;;;;;;5044264;28;20037;-63
2022/07/29 14:12:27;;;;;;;8.75;1.27;;;;;;;;;;5038452;28;20091;-63
2022/07/29 14:14:53;;;;;;;10.30;1.60;;;;;;;;;;5033829;28;20030;-63
2022/07/29 14:17:20;;;;;;;5.75;1.33;;;;;;;;;;5033252;28;20437;-63
2022/07/29 14:19:47;;;;;;;11.10;1.17;;;;;;;;;;5040486;28;20073;-62
2022/07/29 14:22:14;;;;;;;10.40;1.70;;;;;;;;;;5041292;28;20080;-63
2022/07/29 14:24:41;;;;;;;11.95;1.83;;;;;;;;;;5032368;28;20055;-63
2022/07/29 14:27:09;;;;;;;9.90;1.83;;;;;;;;;;5034379;28;20037;-63
2022/07/29 14:29:36;;;;;;;12.75;1.50;;;;;;;;;;5033497;28;20053;-63
2022/07/29 14:32:03;;;;;;;6.97;1.08;;;;;;;;;;5033497;28;20112;-63
2022/07/29 14:34:29;;;;;;;6.97;1.35;;;;;;;;;;5034372;28;20025;-62
2022/07/29 14:36:56;;;;;;;8.05;1.23;;;;;;;;;;5033037;28;20037;-62
2022/07/29 14:39:23;;;;;;;5.45;1.40;;;;;;;;;;5033833;28;20108;-63
2022/07/29 14:41:51;;;;;;;30.80;4.03;;;;;;;;;;5033846;28;20037;-63
2022/07/29 14:44:18;;;;;;;34.33;5.32;;;;;;;;;;5015810;28;20390;-62
2022/07/29 14:46:45;;;;;;;23.92;3.28;;;;;;;;;;5033266;28;20095;-62
2022/07/29 14:49:12;;;;;;;29.38;4.40;;;;;;;;;;5033483;28;20033;-62
2022/07/29 14:51:39;;;;;;;26.35;3.50;;;;;;;;;;5033114;28;20033;-62